Date,TemperatureHighF,TemperatureAvgF,TemperatureLowF,DewpointHighF,DewpointAvgF,DewpointLowF,HumidityHigh,HumidityAvg,HumidityLow,PressureMaxIn,PressureMinIn,WindSpeedMaxMPH,WindSpeedAvgMPH,GustSpeedMaxMPH,PrecipitationSumIn
2012-1-1,38.0,32.1,25.0,37.0,22.0,15.0,95,67,44,0.00,40.00,32,20,46,0.00
2012-1-2,26.0,21.3,11.0,17.0,10.2,6.0,86,62,42,0.00,40.00,26,14,41,0.00
2012-1-3,39.0,26.7,8.0,21.0,14.6,7.0,93,62,39,0.00,40.00,18,8,27,0.00
2012-1-4,45.0,35.1,27.0,30.0,27.5,21.0,91,74,53,0.00,40.00,15,8,22,0.00
2012-1-5,65.0,42.2,27.0,33.0,29.3,25.0,93,65,27,0.00,40.00,13,4,17,0.00
2012-1-6,52.0,38.3,26.0,35.0,30.2,26.0,99,74,51,0.00,40.00,20,6,26,0.00
2012-1-7,42.0,33.0,23.0,28.0,25.9,20.0,99,75,56,0.00,40.00,11,5,16,0.00
2012-1-8,42.0,27.5,18.0,35.0,24.7,18.0,99,90,60,0.00,40.00,6,2,9,0.00
2012-1-9,53.0,35.0,22.0,32.0,26.5,22.0,99,75,38,0.00,40.00,14,6,21,0.00
2012-1-10,59.0,37.1,22.0,33.0,27.5,21.0,99,72,37,0.00,40.00,11,4,15,0.00
2012-1-11,44.0,29.4,17.0,36.0,24.9,8.0,95,83,61,0.00,40.00,28,12,38,0.10
2012-1-12,17.0,13.2,10.0,9.0,5.9,2.0,87,72,63,0.00,40.00,26,17,39,0.04
2012-1-13,20.0,12.8,9.0,9.0,6.5,3.0,86,76,54,0.00,40.00,17,7,26,0.01
2012-1-14,32.0,20.7,13.0,28.0,18.5,9.0,99,91,79,0.00,40.00,7,2,11,0.04
2012-1-15,50.0,31.3,11.0,33.0,25.0,11.0,99,80,49,0.00,40.00,17,5,26,0.00
2012-1-16,44.0,35.4,28.0,33.0,30.1,25.0,98,81,63,0.00,40.00,16,7,21,0.00
2012-1-17,30.0,17.0,1.0,25.0,11.8,-3.0,99,80,53,0.00,40.00,22,12,30,0.42
2012-1-18,31.0,15.4,-4.0,21.0,9.6,-7.0,91,78,58,0.00,40.00,21,7,32,0.00
2012-1-19,18.0,5.2,1.0,14.0,-5.0,-10.0,81,62,51,0.00,40.00,26,9,30,0.00
2012-1-20,11.0,7.6,2.0,8.0,2.0,-7.0,88,77,58,0.00,40.00,16,9,20,0.02
2012-1-21,24.0,15.2,6.0,22.0,11.8,2.0,95,86,82,0.00,40.00,15,7,26,0.00
2012-1-22,35.0,32.7,26.0,35.0,32.7,26.0,99,99,99,0.00,40.00,13,6,22,0.55
2012-1-23,35.0,28.4,25.0,35.0,26.3,22.0,99,91,83,0.00,40.00,20,12,30,0.49
2012-1-24,33.0,27.0,24.0,27.0,23.3,-99.9,99,87,75,0.00,40.00,11,-3,16,0.00
2012-1-25,40.0,31.4,24.0,35.0,30.4,24.0,99,95,81,0.00,40.00,12,5,19,0.00
2012-1-26,44.0,36.1,29.0,36.0,32.5,-99.9,99,88,65,0.00,40.00,14,0,22,0.00
2012-1-27,38.0,31.7,26.0,36.0,27.1,-99.9,99,87,70,0.00,40.00,17,-7,27,0.35
2012-1-28,44.0,31.3,24.0,22.0,19.2,-99.9,89,64,30,0.00,40.00,17,2,27,0.00
2012-1-29,36.0,31.1,26.0,24.0,18.4,-99.9,82,62,44,0.00,40.00,13,-8,21,0.00
2012-1-30,65.0,45.5,32.0,37.0,27.6,-99.9,69,53,29,0.00,40.00,17,-7,24,0.00
2012-1-31,59.0,47.6,40.0,47.0,38.3,-99.9,99,74,45,0.00,40.00,14,-6,22,0.00
2012-2-1,57.0,38.1,25.0,42.0,31.6,-99.9,99,82,41,0.00,40.00,7,-5,11,0.00
2012-2-2,54.0,36.0,23.0,44.0,30.5,-99.9,99,84,44,0.00,40.00,6,-5,9,0.00
2012-2-3,37.0,34.1,33.0,37.0,33.4,-99.9,99,98,96,0.00,40.00,16,2,21,0.47
2012-2-4,35.0,32.6,32.0,35.0,31.2,-99.9,99,98,98,0.00,40.00,18,-1,24,2.25
2012-2-5,32.0,27.7,20.0,32.0,26.9,-99.9,99,98,99,0.00,40.00,12,-2,17,0.00
2012-2-6,35.0,25.5,18.0,31.0,24.8,18.0,99,97,85,0.00,40.00,11,5,14,0.00
2012-2-7,34.0,28.9,20.0,34.0,28.7,20.0,99,99,94,0.00,40.00,14,7,17,1.36
2012-2-8,29.0,23.5,8.0,27.0,18.8,8.0,99,82,65,0.00,40.00,10,4,12,0.00
2012-2-9,33.0,21.7,7.0,32.0,20.6,6.0,99,95,83,0.00,40.00,12,5,17,0.00
2012-2-10,30.0,18.7,10.0,30.0,12.1,0.0,99,75,63,0.00,40.00,22,14,31,0.00
2012-2-11,24.0,12.7,4.0,7.0,0.5,-5.0,69,58,39,0.00,40.00,17,11,24,0.00
2012-2-12,29.0,16.6,5.0,13.0,4.8,-1.0,76,60,38,0.00,40.00,10,5,17,0.00
2012-2-13,32.0,28.9,25.0,31.0,26.1,13.0,99,90,53,0.00,40.00,18,6,26,1.32
2012-2-14,39.0,31.3,20.0,34.0,29.7,20.0,99,94,76,0.00,40.00,12,5,16,0.00
2012-2-15,47.0,35.9,28.0,38.0,33.8,28.0,99,92,70,0.00,40.00,7,2,12,0.00
2012-2-16,44.0,34.5,25.0,34.0,28.8,24.0,99,81,49,0.00,40.00,16,6,22,0.00
2012-2-17,49.0,36.5,24.0,33.0,28.3,23.0,99,74,41,0.00,40.00,13,6,19,0.00
2012-2-18,40.0,29.3,21.0,24.0,21.3,18.0,94,73,45,0.00,40.00,13,5,17,0.00
2012-2-19,45.0,31.2,18.0,29.0,24.4,18.0,99,78,50,0.00,40.00,11,4,16,0.00
2012-2-20,47.0,36.2,28.0,37.0,29.4,23.0,99,76,59,0.00,40.00,17,8,26,0.20
2012-2-21,48.0,38.5,30.0,38.0,32.4,27.0,99,80,53,0.00,40.00,22,8,30,0.00
2012-2-22,51.0,39.2,30.0,38.0,33.6,29.0,99,81,54,0.00,40.00,13,4,19,0.00
2012-2-23,38.0,34.5,31.0,38.0,33.8,31.0,99,97,79,0.00,40.00,21,8,24,1.79
2012-2-24,32.0,28.8,24.0,32.0,25.4,17.0,99,87,68,0.00,40.00,22,13,33,1.20
2012-2-25,31.0,22.8,17.0,21.0,16.5,11.0,87,77,61,0.00,40.00,16,8,24,0.00
2012-2-26,54.0,39.5,25.0,35.0,27.6,20.0,85,63,42,0.00,40.00,23,11,30,0.00
2012-2-27,37.0,28.2,20.0,26.0,19.6,15.0,93,70,53,0.00,40.00,17,8,29,0.00
2012-2-28,47.0,37.7,30.0,47.0,33.7,25.0,99,85,69,0.00,40.00,15,8,24,0.56
2012-2-29,52.0,37.3,32.0,52.0,32.5,26.0,99,82,70,0.00,40.00,26,17,40,0.38
2012-3-1,44.0,35.4,26.0,36.0,31.2,-99.9,99,87,68,0.00,40.00,12,0,20,0.00
2012-3-2,43.0,35.0,32.0,36.0,29.3,-99.9,99,82,52,0.00,40.00,24,5,34,0.25
2012-3-3,36.0,30.5,25.0,25.0,19.7,-99.9,80,65,52,0.00,40.00,24,6,35,0.03
2012-3-4,29.0,23.0,15.0,29.0,20.0,-99.9,99,94,80,0.00,40.00,12,-17,17,0.17
2012-3-5,46.0,29.9,12.0,32.0,22.7,-99.9,99,78,48,0.00,40.00,19,-1,26,0.00
2012-3-6,72.0,54.2,33.0,50.0,39.1,27.0,85,59,32,0.00,40.00,26,12,37,0.00
2012-3-7,66.0,50.6,33.0,55.0,42.2,-99.9,96,77,65,0.00,40.00,24,-10,37,0.00
2012-3-8,47.0,37.7,28.0,29.0,23.0,17.0,90,58,34,0.00,40.00,24,10,34,0.00
2012-3-9,48.0,36.2,24.0,27.0,16.6,7.0,79,48,21,0.00,40.00,14,6,24,0.00
2012-3-10,69.0,50.5,34.0,33.0,27.8,-99.9,76,47,21,0.00,40.00,24,10,32,0.00
2012-3-11,62.0,49.6,37.0,54.0,38.7,31.0,99,69,35,0.00,40.00,16,6,24,2.86
2012-3-12,65.0,53.8,43.0,52.0,49.5,43.0,99,86,56,0.00,40.00,16,8,21,0.27
2012-3-13,76.0,54.2,33.0,54.0,45.1,33.0,99,76,40,0.00,40.00,14,5,20,0.00
2012-3-14,80.0,65.2,54.0,63.0,57.3,50.0,99,77,47,0.00,40.00,19,7,26,0.00
2012-3-15,81.0,61.8,42.0,63.0,55.0,42.0,99,81,52,0.00,40.00,11,3,16,0.40
2012-3-16,85.0,68.0,52.0,67.0,59.7,52.0,99,78,41,0.00,40.00,17,6,26,0.00
2012-3-17,83.0,70.8,61.0,65.0,62.8,58.0,99,78,50,0.00,40.00,21,9,31,0.00
2012-3-18,82.0,68.9,58.0,64.0,61.0,57.0,99,78,52,0.00,40.00,22,12,34,0.00
2012-3-19,81.0,68.2,60.0,67.0,61.8,59.0,99,81,46,0.00,40.00,22,9,30,1.58
2012-3-20,72.0,61.9,57.0,64.0,58.6,-99.9,99,92,67,0.00,40.00,12,5,17,2.12
2012-3-21,69.0,62.7,58.0,65.0,60.3,-99.9,99,93,81,0.00,40.00,11,-2,17,2.67
2012-3-22,65.0,58.4,49.0,63.0,57.0,-99.9,99,96,85,0.00,40.00,12,-2,17,2.86
2012-3-23,68.0,55.4,44.0,59.0,51.1,44.0,99,86,58,0.00,40.00,12,4,18,0.00
2012-3-24,73.0,61.8,52.0,60.0,56.0,51.0,99,82,58,0.00,40.00,17,8,21,0.00
2012-3-25,77.0,59.8,43.0,60.0,52.7,43.0,99,80,45,0.00,40.00,7,2,11,0.00
2012-3-26,62.0,55.0,49.0,56.0,44.3,35.0,99,69,46,0.00,40.00,22,13,34,0.00
2012-3-27,80.0,64.6,48.0,62.0,48.6,35.0,93,59,25,0.00,40.00,24,12,39,0.38
2012-3-28,74.0,59.7,42.0,44.0,40.8,37.0,97,53,27,0.00,40.00,12,6,19,0.00
2012-3-29,65.0,56.4,49.0,53.0,46.4,39.0,99,69,54,0.00,40.00,21,9,30,0.87
2012-3-30,58.0,54.0,50.0,57.0,53.4,50.0,99,98,89,0.00,40.00,27,6,41,0.39
2012-3-31,72.0,57.0,49.0,62.0,55.0,49.0,99,93,72,0.00,40.00,12,6,17,0.00
2012-4-1,86.0,69.3,48.0,67.0,60.1,48.0,99,76,41,0.00,40.00,17,4,22,0.00
2012-4-2,88.0,67.3,53.0,69.0,60.7,53.0,99,81,50,0.00,40.00,15,8,22,0.11
2012-4-3,70.0,62.4,55.0,63.0,54.9,48.0,99,77,51,0.00,40.00,20,10,26,0.00
2012-4-4,68.0,58.6,54.0,49.0,42.6,32.0,79,58,28,0.00,40.00,17,10,23,0.00
2012-4-5,64.0,53.1,44.0,37.0,30.0,26.0,60,42,24,0.00,40.00,17,10,23,0.00
2012-4-6,64.0,49.9,36.0,36.0,32.3,29.0,78,53,29,0.00,40.00,11,6,26,0.10
2012-4-7,64.0,50.5,42.0,55.0,40.4,30.0,99,71,32,0.00,40.00,17,6,26,0.38
2012-4-8,69.0,54.1,31.0,38.0,31.4,25.0,96,46,20,0.00,40.00,17,7,27,0.00
2012-4-9,65.0,51.6,33.0,33.0,26.3,18.0,90,42,20,0.00,40.00,21,9,35,0.00
2012-4-10,57.0,42.6,25.0,27.0,20.6,14.0,93,46,18,0.00,40.00,22,8,32,0.00
2012-4-11,57.0,40.9,25.0,28.0,21.1,17.0,74,47,25,0.00,40.00,11,4,14,0.00
2012-4-12,65.0,49.1,26.0,39.0,31.2,23.0,93,54,29,0.00,40.00,16,5,23,0.07
2012-4-13,56.0,51.8,47.0,56.0,48.1,34.0,99,89,47,0.00,40.00,16,8,28,1.20
2012-4-14,68.0,58.6,53.0,66.0,57.7,-99.9,99,99,91,0.00,40.00,37,6,54,1.40
2012-4-15,75.0,66.3,58.0,68.0,60.2,44.0,99,82,47,0.00,40.00,29,15,44,0.50
2012-4-16,59.0,50.2,43.0,51.0,42.4,38.0,99,75,53,0.00,40.00,26,13,40,0.21
2012-4-17,69.0,53.2,37.0,50.0,44.1,37.0,99,74,46,0.00,40.00,14,5,22,0.00
2012-4-18,72.0,61.4,51.0,60.0,54.6,48.0,99,79,59,0.00,40.00,15,5,21,1.61
2012-4-19,64.0,55.0,43.0,61.0,52.9,43.0,99,92,78,0.00,40.00,21,8,28,1.23
2012-4-20,56.0,46.3,39.0,44.0,39.2,35.0,99,78,49,0.00,40.00,21,13,29,0.00
2012-4-21,58.0,44.4,33.0,49.0,41.0,33.0,99,88,56,0.00,40.00,9,3,16,0.15
2012-4-22,58.0,48.9,42.0,47.0,42.3,36.0,99,80,46,0.00,40.00,14,7,20,0.00
2012-4-23,65.0,51.1,39.0,47.0,40.6,-99.9,99,72,36,0.00,40.00,12,-2,20,0.00
2012-4-24,83.0,63.2,43.0,60.0,49.8,40.0,93,64,37,0.00,40.00,9,4,14,0.10
2012-4-25,84.0,68.5,53.0,66.0,57.3,50.0,98,70,32,0.00,40.00,12,6,19,0.73
2012-4-26,68.0,60.5,51.0,56.0,44.3,32.0,99,59,27,0.00,40.00,20,9,26,0.00
2012-4-27,59.0,51.8,47.0,40.0,33.1,27.0,76,49,30,0.00,40.00,29,15,40,0.41
2012-4-28,53.0,46.8,41.0,50.0,44.7,-99.9,99,95,74,0.00,40.00,24,10,32,0.16
2012-4-29,49.0,47.7,45.0,49.0,47.1,44.0,99,97,92,0.00,40.00,12,6,18,0.49
2012-4-30,66.0,54.2,48.0,56.0,51.9,48.0,99,92,68,0.00,40.00,9,3,13,0.00
2012-5-1,76.0,62.8,51.0,67.0,60.5,51.0,99,92,71,0.00,40.00,16,5,23,0.00
2012-5-2,78.0,68.9,60.0,73.0,67.7,60.0,99,95,81,0.00,40.00,27,7,36,1.67
2012-5-3,84.0,73.8,67.0,72.0,67.6,60.0,99,82,53,0.00,40.00,11,5,17,0.11
2012-5-4,84.0,72.8,65.0,72.0,69.0,65.0,99,88,58,0.00,40.00,12,4,19,0.93
2012-5-5,84.0,72.5,66.0,75.0,69.1,-99.9,99,91,73,0.00,40.00,18,8,24,0.20
2012-5-6,81.0,69.7,62.0,72.0,67.0,62.0,99,91,70,0.00,40.00,23,10,30,1.12
2012-5-7,70.0,63.8,59.0,62.0,54.1,46.0,99,73,46,0.00,40.00,17,10,24,0.11
2012-5-8,66.0,58.6,50.0,48.0,45.0,40.0,87,61,42,0.00,40.00,21,9,30,0.00
2012-5-9,68.0,55.9,47.0,52.0,47.5,43.0,99,76,41,0.00,40.00,12,6,20,0.00
2012-5-10,77.0,62.2,45.0,54.0,49.5,44.0,99,67,39,0.00,40.00,12,4,19,0.00
2012-5-11,80.0,68.2,58.0,64.0,53.5,39.0,82,60,36,0.00,40.00,21,9,28,0.00
2012-5-12,73.0,61.5,53.0,47.0,41.8,-99.9,70,51,26,0.00,40.00,14,9,19,0.00
2012-5-13,76.0,61.7,43.0,48.0,40.9,33.0,99,52,21,0.00,40.00,10,3,18,0.00
2012-5-14,80.0,65.3,45.0,54.0,48.0,42.0,99,58,29,0.00,40.00,17,4,21,0.11
2012-5-15,88.0,71.2,54.0,60.0,48.2,36.0,80,48,20,0.00,40.00,19,10,28,0.00
2012-5-16,77.0,64.4,46.0,49.0,43.6,39.0,88,49,26,0.00,40.00,11,4,16,0.14
2012-5-17,82.0,68.2,54.0,52.0,48.1,43.0,80,51,32,0.00,40.00,14,6,26,0.00
2012-5-18,89.0,74.1,58.0,61.0,54.5,47.0,67,51,33,0.00,40.00,22,8,30,0.11
2012-5-19,87.0,76.1,65.0,64.0,59.5,-99.9,78,58,40,0.00,40.00,21,9,30,0.00
2012-5-20,76.0,67.6,54.0,64.0,55.3,42.0,91,65,44,0.00,40.00,21,11,27,0.00
2012-5-21,79.0,62.3,42.0,50.0,44.3,41.0,99,56,26,0.00,40.00,13,4,19,0.00
2012-5-22,83.0,68.3,51.0,54.0,50.3,48.0,95,57,30,0.00,40.00,16,6,24,0.00
2012-5-23,89.0,75.1,61.0,61.0,54.4,49.0,67,50,35,0.00,40.00,17,7,29,0.00
2012-5-24,86.0,73.3,59.0,71.0,62.5,55.0,99,70,52,0.00,40.00,27,11,35,1.15
2012-5-25,68.0,60.2,53.0,63.0,58.3,53.0,99,93,74,0.00,40.00,15,5,24,3.39
2012-5-26,91.0,74.5,61.0,80.0,68.0,56.0,94,81,64,0.00,40.00,15,7,26,0.27
2012-5-27,91.0,81.6,70.0,75.0,69.4,60.0,99,69,40,0.00,40.00,21,11,31,0.00
2012-5-28,87.0,76.8,61.0,71.0,61.2,48.0,99,61,28,0.00,40.00,16,7,26,0.00
2012-5-29,76.0,65.2,53.0,57.0,46.7,-99.9,99,57,30,0.00,40.00,18,0,29,0.00
2012-5-30,71.0,61.1,50.0,53.0,45.6,42.0,89,59,37,0.00,40.00,12,5,21,0.20
2012-5-31,60.0,53.0,50.0,55.0,52.8,50.0,99,98,77,0.00,40.00,13,8,20,3.89
2012-6-1,70.0,57.1,42.0,54.0,47.5,41.0,99,73,41,0.00,40.00,11,4,17,0.00
2012-6-2,76.0,62.7,54.0,60.0,53.3,-99.9,99,77,45,0.00,40.00,14,-2,21,0.11
2012-6-3,82.0,68.9,50.0,65.0,58.7,50.0,99,73,43,0.00,40.00,11,3,17,0.00
2012-6-4,84.0,73.2,62.0,67.0,63.6,59.0,99,74,44,0.00,40.00,12,5,18,0.00
2012-6-5,85.0,71.7,58.0,67.0,62.0,58.0,99,74,45,0.00,40.00,12,4,19,0.11
2012-6-6,80.0,68.7,61.0,65.0,61.4,58.0,99,79,48,0.00,40.00,9,3,16,0.75
2012-6-7,83.0,69.9,55.0,62.0,59.3,55.0,99,72,44,0.00,40.00,9,3,14,0.00
2012-6-8,87.0,73.7,59.0,64.0,59.8,56.0,93,64,39,0.00,40.00,13,-1,21,0.06
2012-6-9,90.0,77.0,61.0,64.0,58.5,-99.9,86,57,34,0.00,40.00,17,6,24,0.00
2012-6-10,91.0,81.3,71.0,71.0,65.4,61.0,77,59,43,0.00,40.00,19,8,28,0.00
2012-6-11,81.0,73.0,62.0,72.0,62.5,51.0,99,73,42,0.00,40.00,16,8,26,1.25
2012-6-12,75.0,63.5,52.0,53.0,47.7,44.0,99,59,32,0.00,40.00,14,5,21,0.00
2012-6-13,81.0,65.7,51.0,57.0,53.3,49.0,99,67,36,0.00,40.00,15,4,21,0.00
2012-6-14,90.0,76.7,62.0,69.0,60.9,54.0,81,59,42,0.00,40.00,20,8,29,0.00
2012-6-15,87.0,73.2,67.0,71.0,65.1,57.0,99,77,53,0.00,40.00,20,5,35,1.37
2012-6-16,82.0,72.4,67.0,75.0,69.3,-99.9,99,92,67,0.00,40.00,10,5,19,0.45
2012-6-17,85.0,75.3,59.0,75.0,67.5,59.0,99,79,52,0.00,40.00,17,6,25,0.00
2012-6-18,93.0,83.8,76.0,79.0,74.9,72.0,89,75,56,0.00,40.00,24,13,34,0.00
2012-6-19,91.0,81.7,71.0,77.0,72.0,67.0,88,73,55,0.00,40.00,22,11,31,0.00
2012-6-20,90.0,80.0,65.0,77.0,72.2,65.0,99,77,63,0.00,40.00,19,10,29,0.88
2012-6-21,80.0,70.0,62.0,67.0,62.6,59.0,99,79,52,0.00,40.00,14,6,26,0.48
2012-6-22,85.0,71.5,56.0,68.0,62.0,56.0,99,75,45,0.00,40.00,6,2,13,0.00
2012-6-23,80.0,68.7,62.0,70.0,65.9,62.0,99,91,69,0.00,40.00,7,3,12,0.47
2012-6-24,88.0,76.6,66.0,77.0,72.2,66.0,99,87,68,0.00,40.00,11,3,13,0.00
2012-6-25,82.0,73.5,63.0,73.0,63.2,-99.9,99,73,47,0.00,40.00,16,0,24,0.00
2012-6-26,85.0,71.0,56.0,63.0,57.8,51.0,88,64,43,0.00,40.00,9,5,19,0.00
2012-6-27,99.0,82.4,67.0,83.0,70.1,57.0,88,67,54,0.00,40.00,16,8,24,0.00
2012-6-28,94.0,83.9,74.0,83.0,78.1,71.0,99,83,67,0.00,40.00,11,4,20,0.00
2012-6-29,92.0,76.5,68.0,81.0,72.3,65.0,99,87,61,0.00,40.00,29,4,44,0.32
2012-6-30,89.0,79.8,66.0,81.0,75.7,66.0,99,88,70,0.00,40.00,17,4,24,0.00
2012-7-1,96.0,83.0,72.0,83.0,77.9,72.0,99,85,54,0.00,40.00,11,4,18,0.00
2012-7-2,94.0,83.3,71.0,82.0,77.2,71.0,99,83,60,0.00,40.00,11,4,17,0.06
2012-7-3,96.0,84.4,73.0,83.0,77.5,73.0,99,81,57,0.00,40.00,11,4,19,0.00
2012-7-4,98.0,85.5,73.0,82.0,76.6,73.0,98,76,55,0.00,40.00,10,4,14,0.00
2012-7-5,99.0,84.7,73.0,83.0,76.4,71.0,99,77,54,0.00,40.00,7,3,11,0.00
2012-7-6,100.0,85.2,70.0,85.0,77.2,70.0,99,79,50,0.00,40.00,7,2,11,0.00
2012-7-7,96.0,83.6,71.0,84.0,76.7,71.0,99,81,55,0.00,40.00,15,4,19,0.28
2012-7-8,88.0,77.4,69.0,71.0,67.2,-99.9,97,73,52,0.00,40.00,12,-2,18,0.11
2012-7-9,89.0,75.4,62.0,74.0,67.5,62.0,99,78,47,0.00,40.00,15,2,22,0.00
2012-7-10,85.0,73.6,58.0,70.0,64.3,58.0,99,74,50,0.00,40.00,12,5,17,0.11
2012-7-11,88.0,74.0,60.0,65.0,60.4,56.0,95,66,37,0.00,40.00,12,4,18,0.00
2012-7-12,91.0,77.7,63.0,72.0,66.3,61.0,92,69,49,0.00,40.00,9,4,14,0.00
2012-7-13,88.0,76.3,69.0,74.0,70.3,67.0,99,82,57,0.00,40.00,7,2,12,0.00
2012-7-14,95.0,78.5,64.0,76.0,71.1,63.0,99,80,43,0.00,40.00,9,2,13,0.00
2012-7-15,98.0,80.0,64.0,77.0,69.5,-99.9,99,76,41,0.00,40.00,5,-12,9,0.00
2012-7-16,96.0,82.8,67.0,76.0,71.3,-99.9,98,72,47,0.00,40.00,11,-3,17,0.00
2012-7-17,85.0,76.2,72.0,74.0,71.9,70.0,95,87,67,0.00,40.00,7,3,12,0.00
2012-8-3,95.0,86.9,78.0,73.0,69.0,-99.9,77,57,45,0.00,40.00,7,-8,14,0.00
2012-8-4,79.0,73.8,70.0,75.0,71.9,70.0,99,93,75,0.00,40.00,9,3,13,0.00
2012-8-10,76.0,70.1,59.0,62.0,61.0,58.0,99,74,57,0.00,40.00,8,3,13,0.00
2012-8-11,78.0,62.2,51.0,61.0,56.2,51.0,99,83,48,0.00,40.00,6,1,10,0.00
2012-8-21,82.0,75.6,62.0,59.0,55.2,51.0,76,51,35,0.00,40.00,6,2,10,0.00
2012-8-22,88.0,67.2,57.0,66.0,56.9,53.0,86,72,45,0.00,40.00,7,3,11,0.00
2012-8-24,90.0,80.8,65.0,66.0,63.7,59.0,94,58,36,0.00,40.00,14,5,21,0.00
2012-8-25,74.0,66.6,61.0,69.0,63.4,59.0,97,89,74,0.00,40.00,4,2,7,0.38
2012-8-31,90.0,83.4,74.0,75.0,72.6,68.0,99,71,51,0.00,40.00,9,3,12,0.00
2012-9-1,75.0,72.3,71.0,74.0,70.2,63.0,99,93,68,0.00,40.00,11,6,17,0.00
2012-9-4,96.0,87.4,75.0,75.0,73.4,71.0,97,66,45,0.00,40.00,8,4,14,0.03
2012-9-5,86.0,72.6,64.0,75.0,67.8,64.0,99,86,56,0.00,40.00,21,7,38,1.33
2012-9-7,71.0,65.7,56.0,65.0,56.1,49.0,99,72,49,0.00,40.00,12,8,24,0.10
2012-9-8,69.0,55.5,48.0,51.0,48.5,47.0,99,78,48,0.00,40.00,12,6,19,0.00
2012-9-11,92.0,82.6,66.0,57.0,55.4,54.0,73,41,27,0.00,40.00,17,-7,30,0.00
2012-9-12,86.0,69.6,59.0,64.0,60.4,57.0,99,75,44,0.00,40.00,9,4,17,0.00
2012-9-14,78.0,67.5,54.0,50.0,44.1,-99.9,84,48,27,0.00,40.00,11,-11,16,0.00
2012-9-15,81.0,62.2,43.0,54.0,48.4,43.0,99,66,29,0.00,40.00,11,4,19,0.00
2012-9-16,79.0,61.8,45.0,64.0,56.0,45.0,99,83,57,0.00,40.00,11,4,17,0.00
2012-9-17,69.0,57.7,44.0,63.0,53.8,44.0,99,88,52,0.00,40.00,18,5,26,0.61
2012-9-18,65.0,53.5,40.0,45.0,40.6,32.0,99,66,29,0.00,40.00,12,5,21,0.00
2012-9-19,83.0,64.3,45.0,57.0,45.2,36.0,83,53,27,0.00,40.00,17,8,28,0.00
2012-9-20,71.0,59.0,47.0,44.0,37.2,31.0,79,47,22,0.00,40.00,15,5,24,0.00
2012-9-21,71.0,57.5,45.0,48.0,44.9,42.0,92,66,39,0.00,40.00,14,5,21,0.00
2012-9-22,61.0,49.8,36.0,43.0,35.2,-99.9,97,60,40,0.00,40.00,19,9,27,0.00
2012-9-23,64.0,45.8,29.0,39.0,32.2,27.0,99,67,25,0.00,40.00,15,3,19,0.00
2012-9-24,80.0,55.0,31.0,47.0,38.4,31.0,99,62,23,0.00,40.00,13,4,23,0.00
2012-9-25,85.0,64.2,46.0,55.0,48.7,43.0,99,63,27,0.00,40.00,6,2,12,0.00
2012-9-26,75.0,59.4,43.0,44.0,39.7,34.0,85,52,22,0.00,40.00,10,4,14,0.00
2012-9-27,74.0,54.0,35.0,48.0,41.8,35.0,99,68,30,0.00,40.00,8,2,13,0.00
2012-9-28,75.0,55.1,37.0,48.0,42.2,37.0,99,68,30,0.00,40.00,4,1,9,0.00
2012-9-29,82.0,58.7,37.0,50.0,44.2,37.0,99,67,26,0.00,40.00,9,2,14,0.00
2012-9-30,82.0,61.4,41.0,49.0,45.1,41.0,99,62,26,0.00,40.00,10,2,16,0.11
2012-10-1,78.0,60.5,46.0,50.0,46.4,41.0,94,64,34,0.00,40.00,18,5,26,0.00
2012-10-2,77.0,59.8,45.0,53.0,47.5,42.0,93,66,38,0.00,40.00,9,4,14,0.00
2012-10-3,83.0,60.4,41.0,53.0,46.4,41.0,99,66,27,0.00,40.00,12,3,19,0.00
2012-10-4,60.0,53.1,47.0,49.0,40.5,33.0,91,63,42,0.00,40.00,17,9,26,0.00
2012-10-5,51.0,41.7,29.0,33.0,27.7,21.0,95,60,32,0.00,40.00,14,6,21,0.00
2012-10-6,44.0,36.9,23.0,28.0,25.2,20.0,88,63,50,0.00,40.00,22,6,28,0.00
2012-10-7,56.0,37.8,20.0,27.0,23.2,20.0,99,61,28,0.00,40.00,12,3,20,0.00
2012-10-8,68.0,50.7,33.0,38.0,33.3,24.0,85,54,30,0.00,40.00,21,10,32,0.00
2012-10-9,60.0,49.0,40.0,46.0,39.4,33.0,99,69,51,0.00,40.00,17,7,26,0.14
2012-10-10,59.0,42.3,26.0,34.0,28.1,23.0,99,63,25,0.00,40.00,13,5,21,0.00
2012-10-11,68.0,50.6,41.0,40.0,33.7,26.0,73,53,36,0.00,40.00,21,9,27,0.00
2012-10-12,47.0,46.3,46.0,26.0,25.3,25.0,43,43,43,0.00,40.00,11,9,14,0.00
2012-10-16,78.0,67.9,55.0,56.0,52.8,50.0,85,60,41,0.00,40.00,15,8,22,0.00
2012-10-17,60.0,57.4,56.0,55.0,52.6,51.0,89,83,79,0.00,40.00,7,5,11,0.00
2012-10-18,48.0,45.2,44.0,48.0,45.1,44.0,99,99,99,0.00,40.00,18,-3,35,1.03
2012-10-19,49.0,46.1,43.0,49.0,45.9,43.0,99,99,96,0.00,40.00,16,-5,27,0.46
2012-10-20,59.0,48.8,44.0,49.0,46.3,44.0,99,91,66,0.00,40.00,9,3,14,0.00
2012-10-21,79.0,59.1,43.0,64.0,53.5,43.0,99,84,55,0.00,40.00,10,4,16,0.00
2012-10-22,76.0,67.8,63.0,70.0,66.7,63.0,99,96,80,0.00,40.00,9,4,16,0.34
2012-10-23,74.0,67.6,62.0,69.0,66.0,62.0,99,94,77,0.00,40.00,14,6,22,0.00
2012-10-24,76.0,71.2,65.0,71.0,68.1,65.0,99,90,75,0.00,40.00,17,7,22,0.00
2012-10-25,67.0,66.3,66.0,65.0,65.0,65.0,95,95,94,0.00,40.00,4,2,7,0.00
2012-10-26,45.0,40.9,37.0,29.0,27.8,27.0,71,59,51,0.00,40.00,14,-7,23,0.00
2012-10-27,46.0,38.0,30.0,33.0,27.7,24.0,91,67,44,0.00,40.00,6,2,9,0.00
2012-10-28,49.0,35.0,23.0,29.0,24.9,20.0,99,71,33,0.00,40.00,7,2,11,0.00
2012-10-29,52.0,36.8,25.0,35.0,29.3,24.0,96,76,45,0.00,40.00,11,3,18,0.00
2012-10-30,30.0,26.0,23.0,29.0,25.9,23.0,99,99,96,0.00,40.00,4,1,4,0.00
2012-10-31,53.0,44.0,32.0,29.0,26.5,24.0,85,53,32,0.00,40.00,12,4,16,0.00
2012-11-1,58.0,43.9,30.0,43.0,35.6,27.0,95,74,47,0.00,40.00,16,6,21,0.00
2012-11-2,48.0,39.9,33.0,34.0,31.5,30.0,88,72,52,0.00,40.00,13,6,18,0.00
2012-11-3,54.0,42.5,33.0,35.0,32.1,29.0,88,68,39,0.00,40.00,6,3,10,0.00
2012-11-4,48.0,42.0,35.0,44.0,39.0,31.0,99,89,74,0.00,40.00,9,3,15,0.60
2012-11-5,44.0,41.4,39.0,42.0,40.0,38.0,99,94,78,0.00,40.00,13,6,18,0.55
2012-11-6,52.0,44.4,39.0,47.0,39.9,36.0,99,85,64,0.00,40.00,16,9,27,0.13
2012-11-7,47.0,40.6,31.0,40.0,36.2,31.0,99,85,64,0.00,40.00,16,5,24,0.18
2012-11-8,61.0,44.7,31.0,41.0,37.6,31.0,99,79,45,0.00,40.00,14,5,21,0.00
2012-11-9,59.0,50.3,39.0,53.0,45.7,39.0,99,85,68,0.00,40.00,12,5,16,0.00
2012-11-10,78.0,65.5,55.0,61.0,57.2,52.0,99,76,53,0.00,40.00,26,13,33,0.16
2012-11-11,67.0,40.5,24.0,59.0,36.5,16.0,99,86,60,0.00,40.00,19,11,26,2.83
2012-11-12,38.0,28.3,20.0,23.0,18.8,16.0,91,68,46,0.00,40.00,20,9,31,0.00
2012-11-13,48.0,33.2,18.0,33.0,25.7,18.0,99,76,48,0.00,40.00,10,3,16,0.00
2012-11-14,59.0,44.5,35.0,37.0,31.8,-99.9,93,64,35,0.00,40.00,16,6,21,0.00
2012-11-15,59.0,44.3,35.0,38.0,34.3,31.0,95,69,44,0.00,40.00,10,4,14,0.00
2012-11-16,56.0,38.6,25.0,38.0,32.7,25.0,99,81,47,0.00,40.00,6,2,9,0.00
2012-11-17,62.0,45.3,32.0,40.0,35.3,32.0,99,72,38,0.00,40.00,20,6,29,0.00
2012-11-18,63.0,48.7,35.0,38.0,34.6,31.0,86,60,37,0.00,40.00,16,6,22,0.00
2012-11-19,63.0,50.7,37.0,49.0,43.7,35.0,99,78,48,0.00,40.00,14,5,21,0.10
2012-11-20,60.0,43.6,31.0,46.0,39.9,31.0,99,88,57,0.00,40.00,7,2,12,0.00
2012-11-21,73.0,51.2,31.0,48.0,41.0,31.0,99,72,38,0.00,40.00,19,7,29,0.92
2012-11-22,67.0,52.8,39.0,53.0,41.5,27.0,78,65,41,0.00,40.00,24,12,34,0.84
2012-11-23,39.0,28.9,20.0,27.0,16.9,14.0,75,60,47,0.00,40.00,26,14,40,0.00
2012-11-24,34.0,25.4,17.0,24.0,17.8,13.0,87,73,54,0.00,40.00,9,5,16,0.00
2012-11-25,38.0,34.8,31.0,28.0,25.9,23.0,78,69,61,0.00,40.00,15,6,21,0.00
2012-11-26,33.0,25.9,13.0,25.0,15.6,9.0,88,65,47,0.00,40.00,19,8,22,0.00
2012-11-27,37.0,22.3,9.0,17.0,13.3,7.0,96,71,42,0.00,40.00,14,5,21,0.00
2012-11-28,47.0,29.9,13.0,28.0,22.1,13.0,99,75,41,0.00,40.00,7,3,11,0.00
2012-11-29,54.0,38.1,28.0,38.0,32.2,27.0,99,81,53,0.00,40.00,9,4,12,0.00
2012-11-30,53.0,37.0,24.0,40.0,33.5,24.0,99,88,62,0.00,40.00,7,3,11,0.00
2012-12-1,57.0,46.7,33.0,57.0,46.6,33.0,99,99,99,0.00,40.00,9,3,14,0.00
2012-12-2,51.0,47.9,42.0,51.0,47.9,42.0,99,99,99,0.00,40.00,9,4,16,0.00
2012-12-3,68.0,55.5,44.0,64.0,50.5,34.0,99,84,60,0.00,40.00,17,8,28,0.00
2012-12-4,59.0,41.2,27.0,35.0,29.1,23.0,98,66,30,0.00,40.00,11,5,16,0.00
2012-12-5,45.0,35.1,22.0,37.0,26.9,19.0,89,72,55,0.00,40.00,11,6,20,0.00
2012-12-6,52.0,44.8,41.0,44.0,36.0,-99.9,97,75,57,0.00,40.00,10,6,16,0.22
2012-12-7,43.0,38.6,33.0,39.0,32.6,28.0,97,79,64,0.00,40.00,12,6,17,0.00
2012-12-8,40.0,32.5,19.0,36.0,29.3,19.0,99,88,70,0.00,40.00,9,3,15,0.00
2012-12-9,36.0,30.8,19.0,36.0,29.7,16.0,99,95,85,0.00,40.00,22,8,32,1.02
2012-12-10,27.0,19.3,14.0,17.0,14.4,10.0,91,81,61,0.00,40.00,20,8,30,0.00
2012-12-11,42.0,27.4,14.0,27.0,19.8,10.0,89,73,49,0.00,40.00,13,6,22,0.00
2012-12-12,51.0,35.5,24.0,26.0,21.1,18.0,86,59,33,0.00,40.00,26,9,32,0.00
2012-12-13,52.0,38.1,27.0,27.0,22.0,17.0,83,53,34,0.00,40.00,17,7,27,0.00
2012-12-14,54.0,38.5,22.0,42.0,29.3,21.0,97,71,45,0.00,40.00,12,4,17,0.00
2012-12-15,49.0,44.3,38.0,49.0,44.2,38.0,99,99,81,0.00,40.00,15,7,21,0.60
2012-12-16,38.0,34.2,29.0,38.0,34.1,29.0,99,99,96,0.00,40.00,12,7,18,0.00
2012-12-17,32.0,28.1,24.0,32.0,27.7,24.0,99,98,90,0.00,40.00,8,3,11,0.00
2012-12-18,40.0,33.9,31.0,39.0,33.3,30.0,99,97,81,0.00,40.00,16,7,27,0.00
2012-12-19,37.0,32.4,28.0,36.0,32.3,28.0,99,99,98,0.00,40.00,30,8,35,1.69
2012-12-20,32.0,23.8,13.0,32.0,23.8,13.0,99,99,97,0.00,40.00,38,24,49,2.00
2012-12-21,21.0,11.9,5.0,15.0,9.6,5.0,99,90,77,0.00,40.00,17,7,24,0.00
2012-12-22,33.0,16.7,5.0,25.0,14.3,5.0,99,91,65,0.00,40.00,8,2,12,0.00
2012-12-23,21.0,16.0,9.0,18.0,14.8,8.0,99,94,83,0.00,40.00,12,6,15,0.00
2012-12-24,20.0,16.1,7.0,19.0,14.5,4.0,99,93,85,0.00,40.00,16,9,24,0.08
2012-12-25,12.0,6.5,0.0,7.0,2.8,-3.0,88,84,77,0.00,40.00,17,8,19,0.00
2012-12-26,18.0,9.5,2.0,15.0,6.8,-1.0,99,88,80,0.00,40.00,10,4,14,0.00
2012-12-27,25.0,15.0,2.0,25.0,13.8,2.0,99,94,87,0.00,40.00,12,4,14,0.00
2012-12-28,29.0,25.1,17.0,29.0,25.0,17.0,99,99,95,0.00,40.00,9,5,16,0.50
2012-12-29,20.0,13.7,2.0,20.0,12.3,1.0,99,94,78,0.00,40.00,15,7,23,0.01
2012-12-30,38.0,19.1,0.0,29.0,14.4,-2.0,97,83,64,0.00,40.00,13,4,19,0.00
2012-12-31,33.0,18.5,8.0,27.0,13.6,3.0,95,81,73,0.00,40.00,17,9,25,0.00
2013-1-1,16.0,5.2,-3.0,5.0,-0.3,-7.0,91,78,60,0.00,40.00,9,3,13,0.00